createdAt,value
2022-09-15T03:01:48.291Z,17.90
2022-09-15T03:04:15.597Z,17.90
2022-09-15T03:06:43.534Z,17.80
2022-09-15T03:09:10.730Z,17.80
2022-09-15T03:11:37.895Z,17.80
2022-09-15T03:14:06.527Z,17.80
2022-09-15T03:16:34.970Z,17.80
2022-09-15T03:19:03.161Z,17.80
2022-09-15T03:21:30.768Z,17.90
2022-09-15T03:23:58.790Z,17.80
2022-09-15T03:26:26.150Z,17.80
2022-09-15T03:28:53.690Z,17.80
2022-09-15T03:31:21.202Z,17.80
2022-09-15T03:33:49.158Z,17.80
2022-09-15T03:36:16.585Z,17.80
2022-09-15T03:38:43.709Z,17.80
2022-09-15T03:41:12.869Z,17.80
2022-09-15T03:43:41.429Z,17.80
2022-09-15T03:46:11.576Z,17.70
2022-09-15T03:48:40.495Z,17.80
2022-09-15T03:51:10.517Z,17.70
2022-09-15T03:53:41.888Z,17.70
2022-09-15T03:56:22.050Z,17.70
2022-09-15T03:58:49.476Z,17.70
2022-09-15T04:01:18.684Z,17.70
2022-09-15T04:03:50.894Z,17.70
2022-09-15T04:06:20.834Z,17.70
2022-09-15T04:08:49.287Z,17.70
2022-09-15T04:11:18.085Z,17.70
2022-09-15T04:13:45.684Z,17.60
2022-09-15T04:16:18.525Z,17.60
2022-09-15T04:18:45.767Z,17.60
2022-09-15T04:21:16.733Z,17.60
2022-09-15T04:23:44.712Z,17.60
2022-09-15T04:26:20.453Z,17.50
2022-09-15T04:28:47.745Z,17.60
2022-09-15T04:31:16.828Z,17.50
2022-09-15T04:33:44.539Z,17.60
2022-09-15T04:36:18.730Z,17.60
2022-09-15T04:38:46.327Z,17.60
2022-09-15T04:41:14.592Z,17.60
2022-09-15T04:43:43.419Z,17.70
2022-09-15T04:46:11.519Z,17.70
2022-09-15T04:48:38.820Z,17.70
2022-09-15T04:51:08.112Z,17.70
2022-09-15T04:53:35.749Z,17.70
2022-09-15T04:56:05.002Z,17.70
2022-09-15T04:58:36.599Z,17.70
2022-09-15T05:01:13.308Z,17.70
2022-09-15T05:03:41.679Z,17.70
2022-09-15T05:06:11.394Z,17.70
2022-09-15T05:08:39.017Z,17.70
2022-09-15T05:11:11.646Z,17.80
2022-09-15T05:13:40.203Z,17.80
2022-09-15T05:16:08.871Z,17.70
2022-09-15T05:18:36.053Z,17.70
2022-09-15T05:21:04.744Z,17.80
2022-09-15T05:23:33.497Z,17.70
2022-09-15T05:26:03.334Z,17.70
2022-09-15T05:28:33.210Z,17.70
2022-09-15T05:31:00.407Z,17.70
2022-09-15T05:33:27.671Z,17.80
2022-09-15T05:35:57.510Z,17.80
2022-09-15T05:38:25.743Z,17.80
2022-09-15T05:40:53.216Z,17.80
2022-09-15T05:43:20.406Z,17.80
2022-09-15T05:45:56.669Z,17.90
2022-09-15T05:48:24.624Z,17.90
2022-09-15T05:50:53.359Z,17.90
2022-09-15T05:53:21.682Z,17.90
2022-09-15T05:55:49.565Z,18.00
2022-09-15T05:58:16.676Z,18.00
2022-09-15T06:00:43.969Z,18.00
2022-09-15T06:03:15.451Z,18.00
2022-09-15T06:05:43.270Z,18.00
2022-09-15T06:08:10.680Z,18.00
2022-09-15T06:10:38.551Z,18.10
2022-09-15T06:13:06.094Z,18.10
2022-09-15T06:15:33.368Z,18.30
2022-09-15T06:18:00.490Z,18.30
2022-09-15T06:20:27.661Z,18.50
2022-09-15T06:22:56.130Z,18.60
2022-09-15T06:25:23.258Z,18.60
2022-09-15T06:27:50.664Z,18.60
2022-09-15T06:30:18.778Z,18.70
2022-09-15T06:32:48.446Z,18.80
2022-09-15T06:35:16.055Z,18.90
2022-09-15T06:37:43.248Z,19.00
2022-09-15T06:40:10.921Z,19.00
2022-09-15T06:42:38.141Z,19.00
2022-09-15T06:45:05.574Z,19.10
2022-09-15T06:47:34.063Z,19.40
2022-09-15T06:50:01.555Z,20.00
2022-09-15T06:52:28.792Z,20.70
2022-09-15T06:54:55.947Z,21.20
2022-09-15T06:57:23.312Z,21.40
2022-09-15T06:59:50.414Z,21.20
2022-09-15T07:02:17.661Z,21.40
2022-09-15T07:04:45.155Z,21.50
2022-09-15T07:07:12.338Z,21.40
2022-09-15T07:09:41.255Z,21.70
2022-09-15T07:12:08.849Z,22.40
2022-09-15T07:14:36.005Z,22.80
2022-09-15T07:17:03.226Z,23.20
2022-09-15T07:19:30.377Z,23.40
2022-09-15T07:21:57.565Z,23.80
2022-09-15T07:24:24.783Z,23.40
2022-09-15T07:26:52.125Z,22.70
2022-09-15T07:29:19.282Z,22.60
2022-09-15T07:31:46.495Z,22.40
2022-09-15T07:34:13.675Z,22.00
2022-09-15T07:36:40.855Z,21.90
2022-09-15T07:39:08.020Z,21.90
2022-09-15T07:41:35.426Z,21.80
2022-09-15T07:44:02.843Z,21.80
2022-09-15T07:46:32.265Z,21.50
2022-09-15T07:49:00.644Z,21.60
2022-09-15T07:51:27.791Z,21.90
2022-09-15T07:53:55.160Z,22.30
2022-09-15T07:56:24.506Z,22.40
2022-09-15T07:58:52.150Z,22.60
2022-09-15T08:03:50.031Z,23.40
2022-09-15T08:06:21.656Z,22.90
2022-09-15T08:08:51.753Z,22.90
2022-09-15T08:11:21.741Z,22.40
2022-09-15T08:13:50.612Z,22.00
2022-09-15T08:16:20.488Z,21.70
2022-09-15T08:18:48.222Z,21.60
2022-09-15T08:21:18.169Z,21.20
2022-09-15T08:23:45.777Z,21.30
2022-09-15T08:26:14.552Z,21.50
2022-09-15T08:28:42.305Z,21.50
2022-09-15T08:31:12.541Z,22.00
2022-09-15T08:33:45.241Z,22.40
2022-09-15T08:36:13.556Z,22.80
2022-09-15T08:38:42.920Z,22.80
2022-09-15T08:41:44.081Z,23.00
2022-09-15T08:44:29.375Z,23.20
2022-09-15T08:47:10.373Z,23.50
2022-09-15T08:50:03.618Z,23.50
2022-09-15T08:52:39.749Z,23.10
2022-09-15T08:55:28.978Z,22.70
2022-09-15T08:57:56.156Z,22.40
2022-09-15T09:00:23.267Z,22.40
2022-09-15T09:03:28.537Z,22.20
2022-09-15T09:06:14.313Z,21.90
2022-09-15T09:09:08.437Z,21.90
2022-09-15T09:11:41.712Z,21.50
2022-09-15T09:14:26.903Z,21.40
2022-09-15T09:17:31.470Z,21.40
2022-09-15T09:20:17.392Z,21.50
2022-09-15T09:22:48.723Z,21.40
2022-09-15T09:25:27.064Z,21.50
2022-09-15T09:27:58.199Z,21.40
2022-09-15T09:30:29.723Z,21.40
2022-09-15T09:33:03.002Z,21.40
2022-09-15T09:35:34.028Z,21.30
2022-09-15T09:38:02.511Z,21.20
2022-09-15T09:40:31.623Z,21.10
2022-09-15T09:43:02.805Z,21.20
2022-09-15T09:45:30.393Z,21.10
2022-09-15T09:48:06.255Z,21.20
2022-09-15T09:50:39.187Z,21.20
2022-09-15T09:53:39.829Z,21.30
2022-09-15T09:56:33.596Z,21.50
2022-09-15T09:59:03.558Z,21.40
2022-09-15T10:01:30.966Z,21.50
2022-09-15T10:04:20.571Z,21.70
2022-09-15T10:06:48.180Z,21.80
2022-09-15T10:09:18.848Z,21.80
2022-09-15T10:11:55.145Z,21.70
2022-09-15T10:14:27.834Z,21.80
2022-09-15T10:17:17.065Z,21.90
2022-09-15T10:19:48.859Z,21.70
2022-09-15T10:22:40.969Z,21.90
2022-09-15T10:25:20.782Z,21.80
2022-09-15T10:28:23.451Z,21.80
2022-09-15T10:31:13.412Z,21.80
2022-09-15T10:33:44.995Z,21.70
2022-09-15T10:36:17.158Z,21.70
2022-09-15T10:38:53.535Z,21.70
2022-09-15T10:41:32.042Z,21.80
2022-09-15T10:44:29.212Z,21.80
2022-09-15T10:47:30.013Z,21.90
2022-09-15T10:50:00.214Z,21.70
2022-09-15T10:53:02.694Z,21.70
2022-09-15T10:55:54.328Z,21.70
2022-09-15T10:58:45.965Z,21.60
2022-09-15T11:01:28.562Z,21.40
2022-09-15T11:04:25.654Z,21.20
2022-09-15T11:07:23.675Z,21.10
2022-09-15T11:10:09.024Z,21.20
2022-09-15T11:12:57.552Z,21.10
2022-09-15T11:15:38.131Z,21.10
2022-09-15T11:18:33.499Z,21.10
2022-09-15T11:21:28.285Z,21.20
2022-09-15T11:24:22.467Z,20.80
2022-09-15T11:27:02.765Z,20.60
2022-09-15T11:29:35.987Z,20.60
2022-09-15T11:32:10.690Z,20.70
2022-09-15T11:34:54.293Z,20.90
2022-09-15T11:37:34.131Z,20.90
2022-09-15T11:40:28.513Z,20.80
2022-09-15T11:43:20.336Z,20.90
2022-09-15T11:45:54.519Z,21.00
2022-09-15T11:48:33.709Z,21.30
2022-09-15T11:51:03.251Z,21.60
2022-09-15T11:53:40.282Z,21.70
2022-09-15T11:56:30.975Z,21.50
2022-09-15T11:59:16.905Z,21.40
2022-09-15T12:01:49.686Z,20.90
2022-09-15T12:04:29.268Z,20.50
2022-09-15T12:07:14.464Z,20.40
2022-09-15T12:09:42.036Z,20.40
2022-09-15T12:12:14.469Z,20.40
2022-09-15T12:14:44.870Z,20.50
2022-09-15T12:17:55.452Z,20.40
2022-09-15T12:20:39.435Z,20.50
2022-09-15T12:23:29.215Z,20.40
2022-09-15T12:26:33.137Z,20.30
2022-09-15T12:29:02.593Z,20.40
2022-09-15T12:31:38.014Z,20.20
2022-09-15T12:34:06.841Z,20.20
2022-09-15T12:36:38.830Z,20.20
2022-09-15T12:39:24.663Z,20.30
2022-09-15T12:41:56.110Z,20.60
2022-09-15T12:44:42.129Z,20.70
2022-09-15T12:47:24.159Z,20.80
2022-09-15T12:49:53.828Z,20.50
2022-09-15T12:52:22.674Z,20.60
2022-09-15T12:55:21.060Z,20.80
2022-09-15T12:58:15.852Z,21.00
2022-09-15T13:01:06.820Z,21.10
2022-09-15T13:06:19.524Z,20.50
2022-09-15T13:08:52.663Z,20.50
2022-09-15T13:11:29.757Z,20.60
2022-09-15T13:14:08.746Z,20.80
2022-09-15T13:16:46.649Z,21.00
2022-09-15T13:19:29.345Z,20.90
2022-09-15T13:21:57.194Z,20.90
2022-09-15T13:24:49.771Z,21.00
2022-09-15T13:27:21.745Z,21.20
2022-09-15T13:29:54.787Z,21.40
2022-09-15T13:32:21.852Z,21.70
2022-09-15T13:35:17.198Z,21.90
2022-09-15T13:38:21.313Z,21.70
2022-09-15T13:41:40.150Z,21.70
2022-09-15T13:44:28.861Z,21.50
2022-09-15T13:47:20.258Z,21.50
2022-09-15T13:49:47.355Z,21.40
2022-09-15T13:52:23.274Z,21.20
2022-09-15T13:55:15.494Z,21.10
2022-09-15T14:00:42.465Z,21.20
2022-09-15T14:03:13.463Z,21.40
2022-09-15T14:05:40.736Z,21.40
2022-09-15T14:08:13.665Z,21.30
2022-09-15T14:10:55.620Z,21.40
2022-09-15T14:13:26.608Z,21.60
2022-09-15T14:15:57.901Z,21.40
2022-09-15T14:18:25.283Z,21.20
2022-09-15T14:21:04.294Z,21.10
2022-09-15T14:23:33.039Z,21.30
2022-09-15T14:26:02.259Z,21.30
2022-09-15T14:28:32.434Z,21.10
2022-09-15T14:31:02.248Z,20.90
2022-09-15T14:33:39.029Z,20.60
2022-09-15T14:36:22.884Z,20.00
2022-09-15T14:39:11.743Z,20.00
2022-09-15T14:41:40.182Z,19.70
2022-09-15T14:47:28.366Z,20.00
2022-09-15T14:50:19.701Z,20.10
2022-09-15T14:52:50.257Z,20.20
2022-09-15T14:55:23.780Z,20.20
2022-09-15T14:57:54.768Z,20.10
2022-09-15T15:00:26.846Z,20.00
2022-09-15T15:03:25.595Z,19.70
2022-09-15T15:06:02.831Z,19.50
2022-09-15T15:08:37.857Z,19.50
2022-09-15T15:11:08.415Z,19.60
2022-09-15T15:13:38.082Z,19.70
2022-09-15T15:16:23.850Z,19.80
2022-09-15T15:21:36.480Z,19.60
2022-09-15T15:24:19.604Z,19.70
2022-09-15T15:26:49.190Z,19.60
2022-09-15T15:29:43.089Z,19.60
2022-09-15T15:32:16.309Z,19.60
2022-09-15T15:35:13.876Z,19.60
2022-09-15T15:37:41.220Z,19.60
2022-09-15T15:40:17.314Z,19.50
2022-09-15T15:43:02.951Z,19.40
2022-09-15T15:45:33.215Z,19.20
2022-09-15T15:48:02.811Z,19.20
2022-09-15T15:50:32.434Z,19.20
2022-09-15T15:53:00.867Z,19.00
2022-09-15T15:55:40.828Z,18.90
2022-09-15T15:58:11.128Z,19.00
2022-09-15T16:00:51.180Z,19.00
2022-09-15T16:03:20.240Z,19.10
2022-09-15T16:05:53.328Z,19.00
2022-09-15T16:08:34.993Z,19.10
2022-09-15T16:11:03.456Z,19.10
2022-09-15T16:13:31.031Z,19.10
2022-09-15T16:16:00.829Z,19.10
2022-09-15T16:18:29.199Z,19.10
2022-09-15T16:20:58.458Z,19.00
2022-09-15T16:23:25.651Z,19.10
2022-09-15T16:26:03.511Z,19.00
2022-09-15T16:28:31.094Z,19.00
2022-09-15T16:30:59.319Z,19.10
2022-09-15T16:33:26.710Z,19.10
2022-09-15T16:36:06.873Z,19.00
2022-09-15T16:38:35.551Z,18.90
2022-09-15T16:41:04.289Z,18.80
2022-09-15T16:43:31.682Z,18.80
2022-09-15T16:45:58.866Z,18.80
2022-09-15T16:48:25.985Z,18.80
2022-09-15T16:51:17.185Z,18.80
2022-09-15T16:53:41.224Z,18.80
2022-09-15T16:56:11.649Z,18.80
2022-09-15T16:58:39.529Z,18.90
2022-09-15T17:01:07.803Z,18.80
2022-09-15T17:03:35.286Z,18.80
2022-09-15T17:06:02.442Z,18.80
2022-09-15T17:08:32.386Z,18.70
2022-09-15T17:11:02.172Z,18.60
2022-09-15T17:13:31.824Z,18.60
2022-09-15T17:16:00.892Z,18.50
2022-09-15T17:18:29.211Z,18.40
2022-09-15T17:20:56.883Z,18.40
2022-09-15T17:23:31.235Z,18.40
2022-09-15T17:26:01.153Z,18.40
2022-09-15T17:28:34.334Z,18.40
2022-09-15T17:31:22.651Z,18.40
2022-09-15T17:33:51.311Z,18.30
2022-09-15T17:36:19.016Z,18.10
2022-09-15T17:38:48.055Z,18.10
2022-09-15T17:41:18.251Z,17.90
2022-09-15T17:43:46.086Z,17.70
2022-09-15T17:46:13.736Z,17.50
2022-09-15T17:48:41.005Z,17.50
2022-09-15T17:51:14.192Z,17.50
2022-09-15T17:53:41.430Z,17.40
2022-09-15T17:56:08.601Z,17.30
2022-09-15T17:58:35.839Z,17.30
2022-09-15T18:01:03.884Z,17.20
2022-09-15T18:03:34.826Z,17.10
2022-09-15T18:06:05.260Z,17.00
2022-09-15T18:08:33.211Z,17.00
2022-09-15T18:11:01.481Z,17.00
2022-09-15T18:13:32.270Z,17.00
2022-09-15T18:16:05.601Z,17.00
2022-09-15T18:18:33.614Z,17.00
2022-09-15T18:21:00.838Z,16.90
2022-09-15T18:23:29.474Z,16.90
2022-09-15T18:25:56.816Z,16.90
2022-09-15T18:28:24.069Z,16.90
2022-09-15T18:30:53.218Z,16.80
2022-09-15T18:33:23.634Z,16.80
2022-09-15T18:35:53.447Z,16.80
2022-09-15T18:38:21.817Z,16.80
2022-09-15T18:40:53.208Z,16.80
2022-09-15T18:43:21.625Z,16.80
2022-09-15T18:45:49.295Z,16.60
2022-09-15T18:48:16.883Z,16.60
2022-09-15T18:50:45.105Z,16.60
2022-09-15T18:53:12.815Z,16.60
2022-09-15T18:55:41.958Z,16.70
2022-09-15T18:58:10.184Z,16.60
2022-09-15T19:00:37.594Z,16.60
2022-09-15T19:03:06.236Z,16.60
2022-09-15T19:05:34.135Z,16.70
2022-09-15T19:08:02.304Z,16.60
2022-09-15T19:10:29.709Z,16.60
2022-09-15T19:12:56.915Z,16.70
2022-09-15T19:15:24.247Z,16.70
2022-09-15T19:17:51.815Z,16.60
2022-09-15T19:20:19.460Z,16.60
2022-09-15T19:22:47.475Z,16.60
2022-09-15T19:25:15.057Z,16.60
2022-09-15T19:27:43.448Z,16.60
2022-09-15T19:30:11.911Z,16.60
2022-09-15T19:32:40.370Z,16.60
2022-09-15T19:35:08.529Z,16.60
2022-09-15T19:37:38.615Z,16.70
2022-09-15T19:40:09.498Z,16.70
2022-09-15T19:42:41.572Z,16.60
2022-09-15T19:45:10.277Z,16.60
2022-09-15T19:47:38.307Z,16.60
2022-09-15T19:50:06.782Z,16.60
2022-09-15T19:52:34.112Z,16.60
2022-09-15T19:55:01.419Z,16.60
2022-09-15T19:57:28.800Z,16.60
2022-09-15T19:59:56.044Z,16.60
2022-09-15T20:02:23.281Z,16.60
2022-09-15T20:04:50.505Z,16.60
2022-09-15T20:07:17.679Z,16.60
2022-09-15T20:09:44.910Z,16.60
2022-09-15T20:12:12.098Z,16.60
2022-09-15T20:14:40.460Z,16.60
2022-09-15T20:17:07.621Z,16.50
2022-09-15T20:19:34.915Z,16.60
2022-09-15T20:22:02.086Z,16.60
2022-09-15T20:24:29.287Z,16.50
2022-09-15T20:26:56.447Z,16.50
2022-09-15T20:29:23.845Z,16.60
2022-09-15T20:31:50.993Z,16.60
2022-09-15T20:34:21.506Z,16.60
2022-09-15T20:36:49.110Z,16.60
2022-09-15T20:39:18.726Z,16.60
2022-09-15T20:41:45.962Z,16.50
2022-09-15T20:44:13.998Z,16.50
2022-09-15T20:46:41.285Z,16.50
2022-09-15T20:49:09.326Z,16.50
2022-09-15T20:51:36.540Z,16.50
2022-09-15T20:54:04.329Z,16.50
2022-09-15T20:56:34.794Z,16.40
2022-09-15T20:59:03.321Z,16.40
